Terminal Aerodrome Forecast
Issued by NWS

Home | Current Version | Previous Version | Text Only | Print | Product List | Glossary On
Versions: 1 2 3 4 5 6 7 8 9 10 11 12 13 14 15 16 17 18 19 20 21 22 23 24 25 26 27 28 29 30 31 32 33 34 35 36 37 38
000
FTUS43 KABR 162338
TAFATY
TAF
KATY 162338Z 1700/1724 36006KT P6SM -SHRA SCT009 BKN013 OVC090
     FM170400 34010G19KT P6SM SHRA OVC015
     FM170600 33009KT P6SM VCSH OVC010
     FM170800 33010KT P6SM VCSH OVC008
     FM171000 33011KT P6SM BKN003
     FM171300 33011KT P6SM SCT008
     FM172300 32008KT P6SM SKC=

USA.gov is the U.S. government's official web portal to all federal, state and local government web resources and services.